sensor_id;sensor_type;location;lat;lon;timestamp;P1;durP1;ratioP1;P2;durP2;ratioP2
55090;SDS011;40985;53.180;5.800;2024-03-07T00:00:10;61.20;;;39.42;;
55090;SDS011;40985;53.180;5.800;2024-03-07T00:02:42;61.78;;;39.70;;
55090;SDS011;40985;53.180;5.800;2024-03-07T00:05:09;64.32;;;40.53;;
55090;SDS011;40985;53.180;5.800;2024-03-07T00:07:36;62.40;;;39.72;;
55090;SDS011;40985;53.180;5.800;2024-03-07T00:10:02;62.75;;;38.47;;
55090;SDS011;40985;53.180;5.800;2024-03-07T00:12:29;59.88;;;38.35;;
55090;SDS011;40985;53.180;5.800;2024-03-07T00:14:57;66.20;;;40.20;;
55090;SDS011;40985;53.180;5.800;2024-03-07T00:17:22;61.58;;;40.40;;
55090;SDS011;40985;53.180;5.800;2024-03-07T00:19:48;64.90;;;40.88;;
55090;SDS011;40985;53.180;5.800;2024-03-07T00:22:14;58.58;;;38.42;;
55090;SDS011;40985;53.180;5.800;2024-03-07T00:24:40;61.75;;;39.10;;
55090;SDS011;40985;53.180;5.800;2024-03-07T00:27:07;57.47;;;39.45;;
55090;SDS011;40985;53.180;5.800;2024-03-07T00:29:33;59.13;;;39.05;;
55090;SDS011;40985;53.180;5.800;2024-03-07T00:32:03;64.50;;;41.10;;
55090;SDS011;40985;53.180;5.800;2024-03-07T00:34:29;59.22;;;38.55;;
55090;SDS011;40985;53.180;5.800;2024-03-07T00:36:54;60.70;;;38.05;;
55090;SDS011;40985;53.180;5.800;2024-03-07T00:39:23;59.30;;;38.50;;
55090;SDS011;40985;53.180;5.800;2024-03-07T00:41:49;58.78;;;39.63;;
55090;SDS011;40985;53.180;5.800;2024-03-07T00:44:14;58.90;;;39.35;;
55090;SDS011;40985;53.180;5.800;2024-03-07T00:46:41;57.25;;;38.53;;
55090;SDS011;40985;53.180;5.800;2024-03-07T00:49:07;63.88;;;39.85;;
55090;SDS011;40985;53.180;5.800;2024-03-07T00:51:32;60.03;;;38.15;;
55090;SDS011;40985;53.180;5.800;2024-03-07T00:53:58;59.05;;;37.35;;
55090;SDS011;40985;53.180;5.800;2024-03-07T00:56:24;58.28;;;37.83;;
55090;SDS011;40985;53.180;5.800;2024-03-07T00:58:50;56.70;;;37.17;;
55090;SDS011;40985;53.180;5.800;2024-03-07T01:01:16;63.38;;;39.80;;
55090;SDS011;40985;53.180;5.800;2024-03-07T01:03:44;58.03;;;38.50;;
55090;SDS011;40985;53.180;5.800;2024-03-07T01:06:09;57.55;;;37.00;;
55090;SDS011;40985;53.180;5.800;2024-03-07T01:08:36;56.35;;;38.28;;
55090;SDS011;40985;53.180;5.800;2024-03-07T01:11:02;58.80;;;39.10;;
55090;SDS011;40985;53.180;5.800;2024-03-07T01:13:43;56.15;;;37.38;;
55090;SDS011;40985;53.180;5.800;2024-03-07T01:16:09;52.45;;;36.13;;
55090;SDS011;40985;53.180;5.800;2024-03-07T01:18:36;59.22;;;37.58;;
55090;SDS011;40985;53.180;5.800;2024-03-07T01:21:03;54.42;;;36.55;;
55090;SDS011;40985;53.180;5.800;2024-03-07T01:23:30;58.25;;;37.45;;
55090;SDS011;40985;53.180;5.800;2024-03-07T01:25:57;58.90;;;35.50;;
55090;SDS011;40985;53.180;5.800;2024-03-07T01:28:24;53.22;;;34.97;;
55090;SDS011;40985;53.180;5.800;2024-03-07T01:30:50;59.58;;;36.15;;
55090;SDS011;40985;53.180;5.800;2024-03-07T01:33:16;56.05;;;36.17;;
55090;SDS011;40985;53.180;5.800;2024-03-07T01:35:42;51.65;;;35.03;;
55090;SDS011;40985;53.180;5.800;2024-03-07T01:38:07;54.97;;;36.78;;
55090;SDS011;40985;53.180;5.800;2024-03-07T01:40:39;54.33;;;35.20;;
55090;SDS011;40985;53.180;5.800;2024-03-07T01:43:06;53.50;;;35.08;;
55090;SDS011;40985;53.180;5.800;2024-03-07T01:45:32;51.38;;;34.72;;
55090;SDS011;40985;53.180;5.800;2024-03-07T01:47:58;54.40;;;35.20;;
55090;SDS011;40985;53.180;5.800;2024-03-07T01:50:24;50.17;;;34.47;;
55090;SDS011;40985;53.180;5.800;2024-03-07T01:52:50;52.55;;;34.63;;
55090;SDS011;40985;53.180;5.800;2024-03-07T01:55:16;47.22;;;32.63;;
55090;SDS011;40985;53.180;5.800;2024-03-07T01:57:43;46.78;;;32.72;;
55090;SDS011;40985;53.180;5.800;2024-03-07T02:00:11;54.80;;;36.65;;
55090;SDS011;40985;53.180;5.800;2024-03-07T02:02:37;51.15;;;33.25;;
55090;SDS011;40985;53.180;5.800;2024-03-07T02:05:03;49.33;;;32.50;;
55090;SDS011;40985;53.180;5.800;2024-03-07T02:07:29;51.00;;;33.28;;
55090;SDS011;40985;53.180;5.800;2024-03-07T02:10:04;53.58;;;33.92;;
55090;SDS011;40985;53.180;5.800;2024-03-07T02:12:31;54.30;;;34.40;;
55090;SDS011;40985;53.180;5.800;2024-03-07T02:14:57;52.30;;;32.78;;
55090;SDS011;40985;53.180;5.800;2024-03-07T02:17:26;52.92;;;33.80;;
55090;SDS011;40985;53.180;5.800;2024-03-07T02:19:52;48.83;;;31.98;;
55090;SDS011;40985;53.180;5.800;2024-03-07T02:22:18;49.75;;;33.83;;
55090;SDS011;40985;53.180;5.800;2024-03-07T02:24:44;53.58;;;32.42;;
55090;SDS011;40985;53.180;5.800;2024-03-07T02:27:11;51.90;;;32.40;;
55090;SDS011;40985;53.180;5.800;2024-03-07T02:29:39;49.30;;;32.65;;
55090;SDS011;40985;53.180;5.800;2024-03-07T02:32:08;48.58;;;31.85;;
55090;SDS011;40985;53.180;5.800;2024-03-07T02:34:34;46.75;;;31.73;;
55090;SDS011;40985;53.180;5.800;2024-03-07T02:37:01;52.00;;;32.78;;
55090;SDS011;40985;53.180;5.800;2024-03-07T02:39:26;45.78;;;31.25;;
55090;SDS011;40985;53.180;5.800;2024-03-07T02:41:52;46.15;;;31.63;;
55090;SDS011;40985;53.180;5.800;2024-03-07T02:44:18;48.88;;;32.53;;
55090;SDS011;40985;53.180;5.800;2024-03-07T02:46:44;53.25;;;32.28;;
55090;SDS011;40985;53.180;5.800;2024-03-07T02:49:12;49.40;;;32.28;;
55090;SDS011;40985;53.180;5.800;2024-03-07T02:51:39;50.90;;;32.40;;
55090;SDS011;40985;53.180;5.800;2024-03-07T02:54:07;51.65;;;32.67;;
55090;SDS011;40985;53.180;5.800;2024-03-07T02:56:33;46.15;;;31.55;;
55090;SDS011;40985;53.180;5.800;2024-03-07T02:58:59;51.35;;;32.50;;
55090;SDS011;40985;53.180;5.800;2024-03-07T03:01:24;47.63;;;30.73;;
55090;SDS011;40985;53.180;5.800;2024-03-07T03:03:50;54.55;;;33.47;;
55090;SDS011;40985;53.180;5.800;2024-03-07T03:06:16;50.83;;;31.05;;
55090;SDS011;40985;53.180;5.800;2024-03-07T03:08:45;48.45;;;31.65;;
55090;SDS011;40985;53.180;5.800;2024-03-07T03:11:11;49.97;;;32.33;;
55090;SDS011;40985;53.180;5.800;2024-03-07T03:13:42;49.95;;;31.83;;
55090;SDS011;40985;53.180;5.800;2024-03-07T03:16:08;50.60;;;32.42;;
55090;SDS011;40985;53.180;5.800;2024-03-07T03:18:35;47.67;;;30.63;;
55090;SDS011;40985;53.180;5.800;2024-03-07T03:21:01;54.60;;;33.10;;
55090;SDS011;40985;53.180;5.800;2024-03-07T03:23:27;51.55;;;32.88;;
55090;SDS011;40985;53.180;5.800;2024-03-07T03:25:53;54.90;;;32.35;;
55090;SDS011;40985;53.180;5.800;2024-03-07T03:28:20;51.83;;;31.73;;
55090;SDS011;40985;53.180;5.800;2024-03-07T03:30:46;49.17;;;31.75;;
55090;SDS011;40985;53.180;5.800;2024-03-07T03:33:13;48.72;;;31.80;;
55090;SDS011;40985;53.180;5.800;2024-03-07T03:35:40;45.95;;;31.33;;
55090;SDS011;40985;53.180;5.800;2024-03-07T03:38:06;55.97;;;34.15;;
55090;SDS011;40985;53.180;5.800;2024-03-07T03:40:32;55.22;;;32.95;;
55090;SDS011;40985;53.180;5.800;2024-03-07T03:42:59;51.40;;;32.15;;
55090;SDS011;40985;53.180;5.800;2024-03-07T03:45:25;52.45;;;31.23;;
55090;SDS011;40985;53.180;5.800;2024-03-07T03:47:52;50.47;;;32.30;;
55090;SDS011;40985;53.180;5.800;2024-03-07T03:50:18;57.50;;;33.80;;
55090;SDS011;40985;53.180;5.800;2024-03-07T03:52:44;51.97;;;31.77;;
55090;SDS011;40985;53.180;5.800;2024-03-07T03:55:10;53.13;;;33.70;;
55090;SDS011;40985;53.180;5.800;2024-03-07T03:57:38;49.08;;;32.53;;
55090;SDS011;40985;53.180;5.800;2024-03-07T04:00:05;53.05;;;31.42;;
55090;SDS011;40985;53.180;5.800;2024-03-07T04:02:40;50.10;;;32.72;;
55090;SDS011;40985;53.180;5.800;2024-03-07T04:05:10;55.00;;;32.75;;
55090;SDS011;40985;53.180;5.800;2024-03-07T04:07:38;49.70;;;31.02;;
55090;SDS011;40985;53.180;5.800;2024-03-07T04:10:04;54.67;;;33.13;;
55090;SDS011;40985;53.180;5.800;2024-03-07T04:12:33;52.92;;;33.95;;
55090;SDS011;40985;53.180;5.800;2024-03-07T04:15:08;49.75;;;31.95;;
55090;SDS011;40985;53.180;5.800;2024-03-07T04:17:41;51.88;;;31.17;;
55090;SDS011;40985;53.180;5.800;2024-03-07T04:20:07;51.45;;;32.38;;
55090;SDS011;40985;53.180;5.800;2024-03-07T04:22:37;52.25;;;32.10;;
55090;SDS011;40985;53.180;5.800;2024-03-07T04:25:07;53.45;;;32.03;;
55090;SDS011;40985;53.180;5.800;2024-03-07T04:27:33;50.58;;;32.22;;
55090;SDS011;40985;53.180;5.800;2024-03-07T04:30:04;49.22;;;30.13;;
55090;SDS011;40985;53.180;5.800;2024-03-07T04:32:36;52.10;;;32.40;;
55090;SDS011;40985;53.180;5.800;2024-03-07T04:35:03;47.53;;;32.10;;
55090;SDS011;40985;53.180;5.800;2024-03-07T04:37:32;47.22;;;31.73;;
55090;SDS011;40985;53.180;5.800;2024-03-07T04:40:03;47.55;;;30.88;;
55090;SDS011;40985;53.180;5.800;2024-03-07T04:42:29;50.05;;;30.65;;
55090;SDS011;40985;53.180;5.800;2024-03-07T04:44:55;50.35;;;31.38;;
55090;SDS011;40985;53.180;5.800;2024-03-07T04:47:21;47.55;;;31.15;;
55090;SDS011;40985;53.180;5.800;2024-03-07T04:49:47;46.80;;;30.15;;
55090;SDS011;40985;53.180;5.800;2024-03-07T04:52:12;44.90;;;29.48;;
55090;SDS011;40985;53.180;5.800;2024-03-07T04:54:38;45.92;;;30.88;;
55090;SDS011;40985;53.180;5.800;2024-03-07T04:57:04;48.60;;;31.02;;
55090;SDS011;40985;53.180;5.800;2024-03-07T04:59:30;46.65;;;30.73;;
55090;SDS011;40985;53.180;5.800;2024-03-07T05:01:56;44.55;;;29.63;;
55090;SDS011;40985;53.180;5.800;2024-03-07T05:04:22;46.47;;;30.55;;
55090;SDS011;40985;53.180;5.800;2024-03-07T05:06:48;46.33;;;30.48;;
55090;SDS011;40985;53.180;5.800;2024-03-07T05:09:14;46.50;;;29.50;;
55090;SDS011;40985;53.180;5.800;2024-03-07T05:11:50;43.92;;;30.42;;
55090;SDS011;40985;53.180;5.800;2024-03-07T05:14:17;44.40;;;28.85;;
55090;SDS011;40985;53.180;5.800;2024-03-07T05:16:42;40.75;;;28.35;;
55090;SDS011;40985;53.180;5.800;2024-03-07T05:19:08;41.03;;;28.35;;
55090;SDS011;40985;53.180;5.800;2024-03-07T05:21:34;40.00;;;27.77;;
55090;SDS011;40985;53.180;5.800;2024-03-07T05:24:06;39.45;;;27.15;;
55090;SDS011;40985;53.180;5.800;2024-03-07T05:26:33;40.67;;;28.17;;
55090;SDS011;40985;53.180;5.800;2024-03-07T05:29:05;44.47;;;27.80;;
55090;SDS011;40985;53.180;5.800;2024-03-07T05:31:38;39.75;;;27.40;;
55090;SDS011;40985;53.180;5.800;2024-03-07T05:34:12;40.08;;;26.60;;
55090;SDS011;40985;53.180;5.800;2024-03-07T05:36:38;42.17;;;28.02;;
55090;SDS011;40985;53.180;5.800;2024-03-07T05:39:14;41.97;;;28.20;;
55090;SDS011;40985;53.180;5.800;2024-03-07T05:41:42;44.10;;;29.08;;
55090;SDS011;40985;53.180;5.800;2024-03-07T05:44:13;38.70;;;27.63;;
55090;SDS011;40985;53.180;5.800;2024-03-07T05:46:41;44.88;;;30.15;;
55090;SDS011;40985;53.180;5.800;2024-03-07T05:49:15;42.40;;;28.52;;
55090;SDS011;40985;53.180;5.800;2024-03-07T05:51:42;43.33;;;29.58;;
55090;SDS011;40985;53.180;5.800;2024-03-07T05:54:10;44.55;;;29.60;;
55090;SDS011;40985;53.180;5.800;2024-03-07T05:56:38;46.55;;;30.85;;
55090;SDS011;40985;53.180;5.800;2024-03-07T05:59:07;47.58;;;30.13;;
55090;SDS011;40985;53.180;5.800;2024-03-07T06:01:34;40.78;;;29.48;;
55090;SDS011;40985;53.180;5.800;2024-03-07T06:04:01;49.65;;;30.88;;
55090;SDS011;40985;53.180;5.800;2024-03-07T06:06:28;45.25;;;30.40;;
55090;SDS011;40985;53.180;5.800;2024-03-07T06:08:57;46.83;;;31.00;;
55090;SDS011;40985;53.180;5.800;2024-03-07T06:11:23;48.10;;;31.42;;
55090;SDS011;40985;53.180;5.800;2024-03-07T06:13:49;46.58;;;30.85;;
55090;SDS011;40985;53.180;5.800;2024-03-07T06:16:14;48.85;;;30.40;;
55090;SDS011;40985;53.180;5.800;2024-03-07T06:18:40;44.67;;;31.45;;
55090;SDS011;40985;53.180;5.800;2024-03-07T06:21:06;46.35;;;32.13;;
55090;SDS011;40985;53.180;5.800;2024-03-07T06:23:33;42.67;;;29.45;;
55090;SDS011;40985;53.180;5.800;2024-03-07T06:25:59;52.25;;;32.60;;
55090;SDS011;40985;53.180;5.800;2024-03-07T06:28:26;46.38;;;33.42;;
55090;SDS011;40985;53.180;5.800;2024-03-07T06:30:55;44.80;;;31.83;;
55090;SDS011;40985;53.180;5.800;2024-03-07T06:33:21;47.95;;;32.70;;
55090;SDS011;40985;53.180;5.800;2024-03-07T06:35:47;49.15;;;32.65;;
55090;SDS011;40985;53.180;5.800;2024-03-07T06:38:13;46.88;;;32.63;;
55090;SDS011;40985;53.180;5.800;2024-03-07T06:40:39;45.92;;;31.13;;
55090;SDS011;40985;53.180;5.800;2024-03-07T06:43:08;50.08;;;34.03;;
55090;SDS011;40985;53.180;5.800;2024-03-07T06:45:36;48.95;;;33.63;;
55090;SDS011;40985;53.180;5.800;2024-03-07T06:48:05;48.55;;;33.90;;
55090;SDS011;40985;53.180;5.800;2024-03-07T06:50:37;48.33;;;32.85;;
55090;SDS011;40985;53.180;5.800;2024-03-07T06:53:03;53.42;;;35.35;;
55090;SDS011;40985;53.180;5.800;2024-03-07T06:55:32;52.22;;;36.53;;
55090;SDS011;40985;53.180;5.800;2024-03-07T06:58:01;48.63;;;33.08;;
55090;SDS011;40985;53.180;5.800;2024-03-07T07:00:30;49.72;;;34.47;;
55090;SDS011;40985;53.180;5.800;2024-03-07T07:03:02;53.35;;;34.10;;
55090;SDS011;40985;53.180;5.800;2024-03-07T07:05:29;54.03;;;35.90;;
55090;SDS011;40985;53.180;5.800;2024-03-07T07:07:55;53.30;;;35.83;;
55090;SDS011;40985;53.180;5.800;2024-03-07T07:10:20;54.92;;;37.63;;
55090;SDS011;40985;53.180;5.800;2024-03-07T07:12:49;55.30;;;37.22;;
55090;SDS011;40985;53.180;5.800;2024-03-07T07:15:17;55.22;;;37.75;;
55090;SDS011;40985;53.180;5.800;2024-03-07T07:17:47;59.17;;;38.55;;
55090;SDS011;40985;53.180;5.800;2024-03-07T07:20:15;59.00;;;39.78;;
55090;SDS011;40985;53.180;5.800;2024-03-07T07:22:46;59.90;;;40.45;;
55090;SDS011;40985;53.180;5.800;2024-03-07T07:25:15;57.40;;;39.85;;
55090;SDS011;40985;53.180;5.800;2024-03-07T07:27:45;60.40;;;40.28;;
55090;SDS011;40985;53.180;5.800;2024-03-07T07:30:12;61.30;;;41.08;;
55090;SDS011;40985;53.180;5.800;2024-03-07T07:32:42;64.38;;;41.40;;
55090;SDS011;40985;53.180;5.800;2024-03-07T07:35:09;60.95;;;42.63;;
55090;SDS011;40985;53.180;5.800;2024-03-07T07:37:47;65.40;;;41.97;;
55090;SDS011;40985;53.180;5.800;2024-03-07T07:40:19;59.72;;;39.40;;
55090;SDS011;40985;53.180;5.800;2024-03-07T07:42:51;59.38;;;39.30;;
55090;SDS011;40985;53.180;5.800;2024-03-07T07:45:18;64.50;;;41.78;;
55090;SDS011;40985;53.180;5.800;2024-03-07T07:47:45;59.65;;;41.03;;
55090;SDS011;40985;53.180;5.800;2024-03-07T07:50:18;61.60;;;42.63;;
55090;SDS011;40985;53.180;5.800;2024-03-07T07:55:19;55.88;;;39.97;;
55090;SDS011;40985;53.180;5.800;2024-03-07T07:57:50;57.40;;;40.38;;
55090;SDS011;40985;53.180;5.800;2024-03-07T08:00:21;57.75;;;41.15;;
55090;SDS011;40985;53.180;5.800;2024-03-07T08:05:21;52.85;;;38.35;;
55090;SDS011;40985;53.180;5.800;2024-03-07T08:07:51;51.58;;;37.78;;
55090;SDS011;40985;53.180;5.800;2024-03-07T08:10:18;54.75;;;40.97;;
55090;SDS011;40985;53.180;5.800;2024-03-07T08:12:44;51.90;;;38.22;;
55090;SDS011;40985;53.180;5.800;2024-03-07T08:15:11;49.00;;;36.33;;
55090;SDS011;40985;53.180;5.800;2024-03-07T08:17:39;47.53;;;36.10;;
55090;SDS011;40985;53.180;5.800;2024-03-07T08:20:06;49.33;;;37.67;;
55090;SDS011;40985;53.180;5.800;2024-03-07T08:22:37;44.45;;;35.20;;
55090;SDS011;40985;53.180;5.800;2024-03-07T08:25:06;46.45;;;34.90;;
55090;SDS011;40985;53.180;5.800;2024-03-07T08:27:38;47.03;;;36.33;;
55090;SDS011;40985;53.180;5.800;2024-03-07T08:30:07;44.33;;;34.50;;
55090;SDS011;40985;53.180;5.800;2024-03-07T08:32:38;49.97;;;36.95;;
55090;SDS011;40985;53.180;5.800;2024-03-07T08:35:05;49.60;;;36.47;;
55090;SDS011;40985;53.180;5.800;2024-03-07T08:37:37;45.13;;;35.58;;
55090;SDS011;40985;53.180;5.800;2024-03-07T08:40:04;46.88;;;34.75;;
55090;SDS011;40985;53.180;5.800;2024-03-07T08:42:31;51.17;;;38.25;;
55090;SDS011;40985;53.180;5.800;2024-03-07T08:45:01;52.95;;;37.45;;
55090;SDS011;40985;53.180;5.800;2024-03-07T08:47:33;49.85;;;36.83;;
55090;SDS011;40985;53.180;5.800;2024-03-07T08:49:59;58.50;;;40.40;;
55090;SDS011;40985;53.180;5.800;2024-03-07T08:52:26;56.30;;;40.67;;
55090;SDS011;40985;53.180;5.800;2024-03-07T08:54:53;57.80;;;39.88;;
55090;SDS011;40985;53.180;5.800;2024-03-07T08:57:19;58.78;;;39.45;;
55090;SDS011;40985;53.180;5.800;2024-03-07T08:59:47;51.85;;;37.38;;
55090;SDS011;40985;53.180;5.800;2024-03-07T09:02:13;51.42;;;35.50;;
55090;SDS011;40985;53.180;5.800;2024-03-07T09:04:39;54.53;;;36.13;;
55090;SDS011;40985;53.180;5.800;2024-03-07T09:07:05;53.97;;;35.70;;
55090;SDS011;40985;53.180;5.800;2024-03-07T09:09:32;58.70;;;38.42;;
55090;SDS011;40985;53.180;5.800;2024-03-07T09:11:58;61.90;;;39.08;;
55090;SDS011;40985;53.180;5.800;2024-03-07T09:14:26;66.60;;;40.80;;
55090;SDS011;40985;53.180;5.800;2024-03-07T09:16:54;68.28;;;40.13;;
55090;SDS011;40985;53.180;5.800;2024-03-07T09:19:21;81.32;;;45.97;;
55090;SDS011;40985;53.180;5.800;2024-03-07T09:21:52;80.28;;;45.78;;
55090;SDS011;40985;53.180;5.800;2024-03-07T09:24:19;85.63;;;45.25;;
55090;SDS011;40985;53.180;5.800;2024-03-07T09:26:51;91.25;;;47.95;;
55090;SDS011;40985;53.180;5.800;2024-03-07T09:29:17;85.60;;;45.47;;
55090;SDS011;40985;53.180;5.800;2024-03-07T09:31:46;95.18;;;49.58;;
55090;SDS011;40985;53.180;5.800;2024-03-07T09:34:17;80.80;;;45.50;;
55090;SDS011;40985;53.180;5.800;2024-03-07T09:36:43;80.93;;;45.10;;
55090;SDS011;40985;53.180;5.800;2024-03-07T09:39:09;70.68;;;44.10;;
55090;SDS011;40985;53.180;5.800;2024-03-07T09:41:37;63.88;;;41.78;;
55090;SDS011;40985;53.180;5.800;2024-03-07T09:44:04;54.75;;;37.10;;
55090;SDS011;40985;53.180;5.800;2024-03-07T09:46:33;49.53;;;34.65;;
55090;SDS011;40985;53.180;5.800;2024-03-07T09:49:00;47.40;;;33.53;;
55090;SDS011;40985;53.180;5.800;2024-03-07T09:51:26;45.95;;;32.72;;
55090;SDS011;40985;53.180;5.800;2024-03-07T09:53:54;46.50;;;31.77;;
55090;SDS011;40985;53.180;5.800;2024-03-07T09:56:24;44.83;;;34.25;;
55090;SDS011;40985;53.180;5.800;2024-03-07T09:58:52;45.45;;;32.70;;
55090;SDS011;40985;53.180;5.800;2024-03-07T10:01:21;44.63;;;32.38;;
55090;SDS011;40985;53.180;5.800;2024-03-07T10:03:47;44.22;;;32.05;;
55090;SDS011;40985;53.180;5.800;2024-03-07T10:06:15;37.45;;;28.23;;
55090;SDS011;40985;53.180;5.800;2024-03-07T10:08:41;40.22;;;29.92;;
55090;SDS011;40985;53.180;5.800;2024-03-07T10:11:08;45.80;;;33.47;;
55090;SDS011;40985;53.180;5.800;2024-03-07T10:13:34;43.53;;;29.77;;
55090;SDS011;40985;53.180;5.800;2024-03-07T10:16:03;46.00;;;31.75;;
55090;SDS011;40985;53.180;5.800;2024-03-07T10:18:31;46.30;;;31.92;;
55090;SDS011;40985;53.180;5.800;2024-03-07T10:20:57;49.17;;;32.55;;
55090;SDS011;40985;53.180;5.800;2024-03-07T10:23:23;49.88;;;32.28;;
55090;SDS011;40985;53.180;5.800;2024-03-07T10:25:52;49.15;;;33.80;;
55090;SDS011;40985;53.180;5.800;2024-03-07T10:28:20;50.08;;;33.85;;
55090;SDS011;40985;53.180;5.800;2024-03-07T10:30:46;50.35;;;33.67;;
55090;SDS011;40985;53.180;5.800;2024-03-07T10:33:15;52.45;;;33.78;;
55090;SDS011;40985;53.180;5.800;2024-03-07T10:35:42;45.45;;;31.23;;
55090;SDS011;40985;53.180;5.800;2024-03-07T10:38:11;46.17;;;31.58;;
55090;SDS011;40985;53.180;5.800;2024-03-07T10:40:38;42.28;;;29.63;;
55090;SDS011;40985;53.180;5.800;2024-03-07T10:43:09;43.10;;;28.67;;
55090;SDS011;40985;53.180;5.800;2024-03-07T10:45:46;43.42;;;28.60;;
55090;SDS011;40985;53.180;5.800;2024-03-07T10:48:14;47.13;;;28.40;;
55090;SDS011;40985;53.180;5.800;2024-03-07T10:56:18;49.65;;;32.80;;
55090;SDS011;40985;53.180;5.800;2024-03-07T10:59:16;47.70;;;31.83;;
55090;SDS011;40985;53.180;5.800;2024-03-07T11:07:17;38.58;;;25.40;;
55090;SDS011;40985;53.180;5.800;2024-03-07T11:09:51;41.50;;;27.15;;
55090;SDS011;40985;53.180;5.800;2024-03-07T11:12:23;43.67;;;27.95;;
55090;SDS011;40985;53.180;5.800;2024-03-07T11:14:52;41.60;;;27.13;;
55090;SDS011;40985;53.180;5.800;2024-03-07T11:17:21;38.13;;;26.33;;
55090;SDS011;40985;53.180;5.800;2024-03-07T11:19:48;40.70;;;27.80;;
55090;SDS011;40985;53.180;5.800;2024-03-07T11:22:30;37.33;;;25.70;;
55090;SDS011;40985;53.180;5.800;2024-03-07T11:25:01;40.30;;;27.08;;
55090;SDS011;40985;53.180;5.800;2024-03-07T11:27:36;36.25;;;25.05;;
55090;SDS011;40985;53.180;5.800;2024-03-07T11:30:07;41.15;;;27.30;;
55090;SDS011;40985;53.180;5.800;2024-03-07T11:32:35;41.53;;;28.77;;
55090;SDS011;40985;53.180;5.800;2024-03-07T11:35:12;40.75;;;27.95;;
55090;SDS011;40985;53.180;5.800;2024-03-07T11:37:47;37.72;;;26.20;;
55090;SDS011;40985;53.180;5.800;2024-03-07T11:42:50;35.78;;;25.25;;
55090;SDS011;40985;53.180;5.800;2024-03-07T11:45:17;32.58;;;23.35;;
55090;SDS011;40985;53.180;5.800;2024-03-07T11:47:53;33.97;;;24.35;;
55090;SDS011;40985;53.180;5.800;2024-03-07T11:50:27;29.40;;;22.98;;
55090;SDS011;40985;53.180;5.800;2024-03-07T11:52:54;30.77;;;22.23;;
55090;SDS011;40985;53.180;5.800;2024-03-07T11:55:24;30.23;;;22.25;;
55090;SDS011;40985;53.180;5.800;2024-03-07T11:57:50;29.80;;;21.63;;
55090;SDS011;40985;53.180;5.800;2024-03-07T12:00:17;30.02;;;21.67;;
55090;SDS011;40985;53.180;5.800;2024-03-07T12:02:43;26.80;;;21.17;;
55090;SDS011;40985;53.180;5.800;2024-03-07T12:05:09;27.05;;;21.15;;
55090;SDS011;40985;53.180;5.800;2024-03-07T12:07:36;32.67;;;20.85;;
55090;SDS011;40985;53.180;5.800;2024-03-07T12:10:03;26.77;;;21.08;;
55090;SDS011;40985;53.180;5.800;2024-03-07T12:12:30;27.38;;;20.52;;
55090;SDS011;40985;53.180;5.800;2024-03-07T12:14:56;29.70;;;21.02;;
55090;SDS011;40985;53.180;5.800;2024-03-07T12:17:22;28.02;;;20.58;;
55090;SDS011;40985;53.180;5.800;2024-03-07T12:19:48;29.05;;;21.20;;
55090;SDS011;40985;53.180;5.800;2024-03-07T12:22:21;28.92;;;20.95;;
55090;SDS011;40985;53.180;5.800;2024-03-07T12:25:08;27.88;;;20.77;;
55090;SDS011;40985;53.180;5.800;2024-03-07T12:27:35;27.02;;;20.70;;
55090;SDS011;40985;53.180;5.800;2024-03-07T12:30:03;28.00;;;20.83;;
55090;SDS011;40985;53.180;5.800;2024-03-07T12:32:50;29.58;;;21.83;;
55090;SDS011;40985;53.180;5.800;2024-03-07T12:35:17;29.15;;;21.92;;
55090;SDS011;40985;53.180;5.800;2024-03-07T12:37:43;28.48;;;21.67;;
55090;SDS011;40985;53.180;5.800;2024-03-07T12:40:14;29.20;;;21.10;;
55090;SDS011;40985;53.180;5.800;2024-03-07T12:42:51;28.17;;;19.48;;
55090;SDS011;40985;53.180;5.800;2024-03-07T12:45:20;29.35;;;20.23;;
55090;SDS011;40985;53.180;5.800;2024-03-07T12:47:46;27.08;;;21.05;;
55090;SDS011;40985;53.180;5.800;2024-03-07T12:50:16;26.42;;;19.83;;
55090;SDS011;40985;53.180;5.800;2024-03-07T12:52:45;26.35;;;19.75;;
55090;SDS011;40985;53.180;5.800;2024-03-07T12:55:17;26.35;;;20.23;;
55090;SDS011;40985;53.180;5.800;2024-03-07T12:57:44;25.67;;;19.60;;
55090;SDS011;40985;53.180;5.800;2024-03-07T13:00:10;25.73;;;20.17;;
55090;SDS011;40985;53.180;5.800;2024-03-07T13:02:44;28.02;;;20.92;;
55090;SDS011;40985;53.180;5.800;2024-03-07T13:05:13;29.48;;;21.17;;
55090;SDS011;40985;53.180;5.800;2024-03-07T13:07:47;28.83;;;21.42;;
55090;SDS011;40985;53.180;5.800;2024-03-07T13:10:16;28.85;;;21.00;;
55090;SDS011;40985;53.180;5.800;2024-03-07T13:12:48;26.87;;;20.97;;
55090;SDS011;40985;53.180;5.800;2024-03-07T13:15:15;28.15;;;21.50;;
55090;SDS011;40985;53.180;5.800;2024-03-07T13:17:41;27.90;;;20.98;;
55090;SDS011;40985;53.180;5.800;2024-03-07T13:20:10;27.90;;;21.95;;
55090;SDS011;40985;53.180;5.800;2024-03-07T13:22:46;32.70;;;21.90;;
55090;SDS011;40985;53.180;5.800;2024-03-07T13:25:24;27.88;;;21.02;;
55090;SDS011;40985;53.180;5.800;2024-03-07T13:28:12;29.92;;;21.27;;
55090;SDS011;40985;53.180;5.800;2024-03-07T13:30:42;31.08;;;20.30;;
55090;SDS011;40985;53.180;5.800;2024-03-07T13:33:08;27.05;;;20.55;;
55090;SDS011;40985;53.180;5.800;2024-03-07T13:35:37;26.45;;;19.13;;
55090;SDS011;40985;53.180;5.800;2024-03-07T13:38:03;25.13;;;18.15;;
55090;SDS011;40985;53.180;5.800;2024-03-07T13:40:29;30.75;;;18.63;;
55090;SDS011;40985;53.180;5.800;2024-03-07T13:42:59;25.92;;;18.65;;
55090;SDS011;40985;53.180;5.800;2024-03-07T13:47:53;25.70;;;19.33;;
55090;SDS011;40985;53.180;5.800;2024-03-07T13:50:20;24.70;;;19.27;;
55090;SDS011;40985;53.180;5.800;2024-03-07T13:52:49;25.77;;;18.27;;
55090;SDS011;40985;53.180;5.800;2024-03-07T14:07:26;26.30;;;18.60;;
55090;SDS011;40985;53.180;5.800;2024-03-07T14:21:34;25.23;;;18.48;;
55090;SDS011;40985;53.180;5.800;2024-03-07T14:24:36;24.40;;;17.77;;
55090;SDS011;40985;53.180;5.800;2024-03-07T14:27:34;22.45;;;16.63;;
55090;SDS011;40985;53.180;5.800;2024-03-07T14:32:54;24.08;;;16.73;;
55090;SDS011;40985;53.180;5.800;2024-03-07T14:35:32;25.80;;;18.10;;
55090;SDS011;40985;53.180;5.800;2024-03-07T14:40:53;23.90;;;16.85;;
55090;SDS011;40985;53.180;5.800;2024-03-07T14:43:20;22.00;;;15.73;;
55090;SDS011;40985;53.180;5.800;2024-03-07T14:45:47;21.70;;;15.90;;
55090;SDS011;40985;53.180;5.800;2024-03-07T14:48:15;22.48;;;16.20;;
55090;SDS011;40985;53.180;5.800;2024-03-07T14:50:44;19.05;;;14.95;;
55090;SDS011;40985;53.180;5.800;2024-03-07T14:53:12;20.38;;;15.18;;
55090;SDS011;40985;53.180;5.800;2024-03-07T14:55:39;21.13;;;15.98;;
55090;SDS011;40985;53.180;5.800;2024-03-07T14:58:05;20.95;;;15.73;;
55090;SDS011;40985;53.180;5.800;2024-03-07T15:00:34;24.17;;;16.10;;
55090;SDS011;40985;53.180;5.800;2024-03-07T15:03:11;22.50;;;16.92;;
55090;SDS011;40985;53.180;5.800;2024-03-07T15:05:40;23.50;;;16.27;;
55090;SDS011;40985;53.180;5.800;2024-03-07T15:08:07;25.02;;;17.23;;
55090;SDS011;40985;53.180;5.800;2024-03-07T15:10:35;24.27;;;17.38;;
55090;SDS011;40985;53.180;5.800;2024-03-07T15:13:03;25.92;;;17.92;;
55090;SDS011;40985;53.180;5.800;2024-03-07T15:15:29;18.52;;;15.80;;
55090;SDS011;40985;53.180;5.800;2024-03-07T15:17:57;19.23;;;15.32;;